sensor_id;sensor_type;location;lat;lon;timestamp;temperature;humidity
83828;DHT22;74656;48.870;12.562;2024-01-07T00:01:50;5.70;83.10
83828;DHT22;74656;48.870;12.562;2024-01-07T00:04:52;5.70;82.90
83828;DHT22;74656;48.870;12.562;2024-01-07T00:07:54;5.70;82.80
83828;DHT22;74656;48.870;12.562;2024-01-07T00:10:56;5.70;82.70
83828;DHT22;74656;48.870;12.562;2024-01-07T00:13:58;5.60;82.90
83828;DHT22;74656;48.870;12.562;2024-01-07T00:17:00;5.70;82.40
83828;DHT22;74656;48.870;12.562;2024-01-07T00:20:03;5.60;82.90
83828;DHT22;74656;48.870;12.562;2024-01-07T00:23:05;5.70;82.40
83828;DHT22;74656;48.870;12.562;2024-01-07T00:26:06;5.70;81.80
83828;DHT22;74656;48.870;12.562;2024-01-07T00:29:08;5.80;81.70
83828;DHT22;74656;48.870;12.562;2024-01-07T00:32:10;5.80;81.60
83828;DHT22;74656;48.870;12.562;2024-01-07T00:35:12;5.80;81.70
83828;DHT22;74656;48.870;12.562;2024-01-07T00:38:14;5.80;81.10
83828;DHT22;74656;48.870;12.562;2024-01-07T00:41:16;5.70;81.50
83828;DHT22;74656;48.870;12.562;2024-01-07T00:44:19;5.70;82.30
83828;DHT22;74656;48.870;12.562;2024-01-07T00:47:21;5.60;82.10
83828;DHT22;74656;48.870;12.562;2024-01-07T00:50:23;5.60;82.00
83828;DHT22;74656;48.870;12.562;2024-01-07T00:53:25;5.50;82.10
83828;DHT22;74656;48.870;12.562;2024-01-07T00:56:27;5.50;82.50
83828;DHT22;74656;48.870;12.562;2024-01-07T00:59:30;5.50;82.50
83828;DHT22;74656;48.870;12.562;2024-01-07T01:02:32;5.50;82.30
83828;DHT22;74656;48.870;12.562;2024-01-07T01:05:34;5.50;81.90
83828;DHT22;74656;48.870;12.562;2024-01-07T01:08:37;5.50;82.30
83828;DHT22;74656;48.870;12.562;2024-01-07T01:11:39;5.40;81.80
83828;DHT22;74656;48.870;12.562;2024-01-07T01:14:41;5.40;82.50
83828;DHT22;74656;48.870;12.562;2024-01-07T01:17:43;5.30;82.40
83828;DHT22;74656;48.870;12.562;2024-01-07T01:20:46;5.30;82.70
83828;DHT22;74656;48.870;12.562;2024-01-07T01:23:48;5.30;82.50
83828;DHT22;74656;48.870;12.562;2024-01-07T01:26:50;5.30;82.40
83828;DHT22;74656;48.870;12.562;2024-01-07T01:29:53;5.20;82.50
83828;DHT22;74656;48.870;12.562;2024-01-07T01:32:55;5.30;81.90
83828;DHT22;74656;48.870;12.562;2024-01-07T01:35:57;5.40;81.50
83828;DHT22;74656;48.870;12.562;2024-01-07T01:38:59;5.40;81.30
83828;DHT22;74656;48.870;12.562;2024-01-07T01:42:01;5.40;80.70
83828;DHT22;74656;48.870;12.562;2024-01-07T01:45:04;5.30;81.00
83828;DHT22;74656;48.870;12.562;2024-01-07T01:48:06;5.30;80.90
83828;DHT22;74656;48.870;12.562;2024-01-07T01:51:08;5.30;80.70
83828;DHT22;74656;48.870;12.562;2024-01-07T01:54:11;5.20;80.20
83828;DHT22;74656;48.870;12.562;2024-01-07T01:57:16;5.30;80.50
83828;DHT22;74656;48.870;12.562;2024-01-07T02:00:21;5.20;81.40
83828;DHT22;74656;48.870;12.562;2024-01-07T02:03:23;5.00;81.80
83828;DHT22;74656;48.870;12.562;2024-01-07T02:06:25;5.00;81.40
83828;DHT22;74656;48.870;12.562;2024-01-07T02:09:28;5.00;81.30
83828;DHT22;74656;48.870;12.562;2024-01-07T02:12:30;5.10;81.50
83828;DHT22;74656;48.870;12.562;2024-01-07T02:15:32;4.90;81.50
83828;DHT22;74656;48.870;12.562;2024-01-07T02:18:35;4.90;82.00
83828;DHT22;74656;48.870;12.562;2024-01-07T02:21:37;4.90;82.20
83828;DHT22;74656;48.870;12.562;2024-01-07T02:24:39;4.90;82.00
83828;DHT22;74656;48.870;12.562;2024-01-07T02:27:41;4.90;81.70
83828;DHT22;74656;48.870;12.562;2024-01-07T02:30:43;4.90;81.30
83828;DHT22;74656;48.870;12.562;2024-01-07T02:33:45;4.80;81.80
83828;DHT22;74656;48.870;12.562;2024-01-07T02:36:47;4.80;82.50
83828;DHT22;74656;48.870;12.562;2024-01-07T02:39:49;4.70;82.30
83828;DHT22;74656;48.870;12.562;2024-01-07T02:43:03;4.90;82.30
83828;DHT22;74656;48.870;12.562;2024-01-07T02:46:05;4.90;81.60
83828;DHT22;74656;48.870;12.562;2024-01-07T02:49:07;4.80;81.50
83828;DHT22;74656;48.870;12.562;2024-01-07T02:52:09;4.70;82.10
83828;DHT22;74656;48.870;12.562;2024-01-07T02:55:11;4.60;82.00
83828;DHT22;74656;48.870;12.562;2024-01-07T02:58:13;4.80;81.80
83828;DHT22;74656;48.870;12.562;2024-01-07T03:01:16;4.70;81.00
83828;DHT22;74656;48.870;12.562;2024-01-07T03:04:18;4.60;81.50
83828;DHT22;74656;48.870;12.562;2024-01-07T03:07:20;4.50;81.90
83828;DHT22;74656;48.870;12.562;2024-01-07T03:10:22;4.50;81.50
83828;DHT22;74656;48.870;12.562;2024-01-07T03:13:24;4.60;81.00
83828;DHT22;74656;48.870;12.562;2024-01-07T03:16:26;4.60;81.00
83828;DHT22;74656;48.870;12.562;2024-01-07T03:19:28;4.50;81.50
83828;DHT22;74656;48.870;12.562;2024-01-07T03:22:30;4.50;81.00
83828;DHT22;74656;48.870;12.562;2024-01-07T03:25:32;4.50;81.40
83828;DHT22;74656;48.870;12.562;2024-01-07T03:28:35;4.40;80.80
83828;DHT22;74656;48.870;12.562;2024-01-07T03:31:37;4.50;81.40
83828;DHT22;74656;48.870;12.562;2024-01-07T03:34:39;4.40;80.90
83828;DHT22;74656;48.870;12.562;2024-01-07T03:37:42;4.30;81.70
83828;DHT22;74656;48.870;12.562;2024-01-07T03:40:43;4.40;81.70
83828;DHT22;74656;48.870;12.562;2024-01-07T03:43:46;4.50;80.30
83828;DHT22;74656;48.870;12.562;2024-01-07T03:46:50;4.40;80.20
83828;DHT22;74656;48.870;12.562;2024-01-07T03:49:52;4.40;79.30
83828;DHT22;74656;48.870;12.562;2024-01-07T03:52:54;4.30;78.90
83828;DHT22;74656;48.870;12.562;2024-01-07T03:55:56;4.40;78.90
83828;DHT22;74656;48.870;12.562;2024-01-07T03:58:58;4.30;79.10
83828;DHT22;74656;48.870;12.562;2024-01-07T04:02:00;4.30;79.20
83828;DHT22;74656;48.870;12.562;2024-01-07T04:05:01;4.30;79.10
83828;DHT22;74656;48.870;12.562;2024-01-07T04:08:03;4.30;78.50
83828;DHT22;74656;48.870;12.562;2024-01-07T04:11:06;4.30;78.20
83828;DHT22;74656;48.870;12.562;2024-01-07T04:14:08;4.20;78.00
83828;DHT22;74656;48.870;12.562;2024-01-07T04:17:10;4.10;78.30
83828;DHT22;74656;48.870;12.562;2024-01-07T04:20:14;4.20;78.50
83828;DHT22;74656;48.870;12.562;2024-01-07T04:23:16;4.20;77.50
83828;DHT22;74656;48.870;12.562;2024-01-07T04:26:18;4.20;77.30
83828;DHT22;74656;48.870;12.562;2024-01-07T04:29:20;4.20;77.30
83828;DHT22;74656;48.870;12.562;2024-01-07T04:32:22;4.20;77.10
83828;DHT22;74656;48.870;12.562;2024-01-07T04:35:24;4.10;77.40
83828;DHT22;74656;48.870;12.562;2024-01-07T04:38:28;4.10;76.80
83828;DHT22;74656;48.870;12.562;2024-01-07T04:41:30;4.00;77.50
83828;DHT22;74656;48.870;12.562;2024-01-07T04:44:32;3.90;77.80
83828;DHT22;74656;48.870;12.562;2024-01-07T04:47:34;3.90;77.80
83828;DHT22;74656;48.870;12.562;2024-01-07T04:50:37;4.10;77.70
83828;DHT22;74656;48.870;12.562;2024-01-07T04:53:39;3.90;76.40
83828;DHT22;74656;48.870;12.562;2024-01-07T04:56:40;3.90;77.20
83828;DHT22;74656;48.870;12.562;2024-01-07T04:59:42;3.90;76.20
83828;DHT22;74656;48.870;12.562;2024-01-07T05:02:45;4.00;75.90
83828;DHT22;74656;48.870;12.562;2024-01-07T05:05:47;3.90;76.10
83828;DHT22;74656;48.870;12.562;2024-01-07T05:08:49;3.90;75.60
83828;DHT22;74656;48.870;12.562;2024-01-07T05:11:51;3.80;75.60
83828;DHT22;74656;48.870;12.562;2024-01-07T05:14:53;3.80;75.70
83828;DHT22;74656;48.870;12.562;2024-01-07T05:17:55;3.70;75.60
83828;DHT22;74656;48.870;12.562;2024-01-07T05:20:57;3.70;75.70
83828;DHT22;74656;48.870;12.562;2024-01-07T05:23:59;3.70;75.40
83828;DHT22;74656;48.870;12.562;2024-01-07T05:27:00;3.80;75.20
83828;DHT22;74656;48.870;12.562;2024-01-07T05:30:03;3.70;75.50
83828;DHT22;74656;48.870;12.562;2024-01-07T05:33:05;3.70;75.60
83828;DHT22;74656;48.870;12.562;2024-01-07T05:36:08;3.70;75.30
83828;DHT22;74656;48.870;12.562;2024-01-07T05:39:10;3.70;76.00
83828;DHT22;74656;48.870;12.562;2024-01-07T05:42:12;3.70;75.10
83828;DHT22;74656;48.870;12.562;2024-01-07T05:45:14;3.70;74.80
83828;DHT22;74656;48.870;12.562;2024-01-07T05:48:17;3.60;75.10
83828;DHT22;74656;48.870;12.562;2024-01-07T05:51:18;3.60;74.90
83828;DHT22;74656;48.870;12.562;2024-01-07T05:54:20;3.60;75.10
83828;DHT22;74656;48.870;12.562;2024-01-07T05:57:22;3.60;75.40
83828;DHT22;74656;48.870;12.562;2024-01-07T06:00:24;3.60;75.30
83828;DHT22;74656;48.870;12.562;2024-01-07T06:03:26;3.50;75.10
83828;DHT22;74656;48.870;12.562;2024-01-07T06:06:29;3.40;75.80
83828;DHT22;74656;48.870;12.562;2024-01-07T06:09:31;3.40;76.20
83828;DHT22;74656;48.870;12.562;2024-01-07T06:12:33;3.40;75.70
83828;DHT22;74656;48.870;12.562;2024-01-07T06:15:36;3.40;75.10
83828;DHT22;74656;48.870;12.562;2024-01-07T06:18:38;3.40;75.30
83828;DHT22;74656;48.870;12.562;2024-01-07T06:21:40;3.40;75.50
83828;DHT22;74656;48.870;12.562;2024-01-07T06:24:43;3.40;75.40
83828;DHT22;74656;48.870;12.562;2024-01-07T06:27:45;3.30;75.50
83828;DHT22;74656;48.870;12.562;2024-01-07T06:30:47;3.40;75.60
83828;DHT22;74656;48.870;12.562;2024-01-07T06:33:49;3.40;75.40
83828;DHT22;74656;48.870;12.562;2024-01-07T06:36:51;3.40;75.50
83828;DHT22;74656;48.870;12.562;2024-01-07T06:39:53;3.30;75.10
83828;DHT22;74656;48.870;12.562;2024-01-07T06:42:56;3.30;74.90
83828;DHT22;74656;48.870;12.562;2024-01-07T06:45:58;3.30;75.20
83828;DHT22;74656;48.870;12.562;2024-01-07T06:49:00;3.30;75.10
83828;DHT22;74656;48.870;12.562;2024-01-07T06:52:03;3.20;74.20
83828;DHT22;74656;48.870;12.562;2024-01-07T06:55:05;3.20;74.50
83828;DHT22;74656;48.870;12.562;2024-01-07T06:58:07;3.20;74.80
83828;DHT22;74656;48.870;12.562;2024-01-07T07:01:09;3.20;74.50
83828;DHT22;74656;48.870;12.562;2024-01-07T07:04:12;3.20;74.90
83828;DHT22;74656;48.870;12.562;2024-01-07T07:07:14;3.30;74.40
83828;DHT22;74656;48.870;12.562;2024-01-07T07:10:16;3.20;74.60
83828;DHT22;74656;48.870;12.562;2024-01-07T07:13:18;3.30;73.70
83828;DHT22;74656;48.870;12.562;2024-01-07T07:16:21;3.30;73.30
83828;DHT22;74656;48.870;12.562;2024-01-07T07:19:23;3.30;73.00
83828;DHT22;74656;48.870;12.562;2024-01-07T07:22:25;3.20;72.60
83828;DHT22;74656;48.870;12.562;2024-01-07T07:25:28;3.00;72.70
83828;DHT22;74656;48.870;12.562;2024-01-07T07:28:30;3.00;73.60
83828;DHT22;74656;48.870;12.562;2024-01-07T07:31:32;3.10;73.80
83828;DHT22;74656;48.870;12.562;2024-01-07T07:34:34;3.10;73.10
83828;DHT22;74656;48.870;12.562;2024-01-07T07:37:37;3.10;73.50
83828;DHT22;74656;48.870;12.562;2024-01-07T07:40:38;3.00;73.10
83828;DHT22;74656;48.870;12.562;2024-01-07T07:43:40;3.00;74.10
83828;DHT22;74656;48.870;12.562;2024-01-07T07:46:42;3.00;73.20
83828;DHT22;74656;48.870;12.562;2024-01-07T07:49:44;3.00;73.20
83828;DHT22;74656;48.870;12.562;2024-01-07T07:52:46;3.00;73.10
83828;DHT22;74656;48.870;12.562;2024-01-07T07:55:48;3.10;73.60
83828;DHT22;74656;48.870;12.562;2024-01-07T07:58:50;3.00;73.00
83828;DHT22;74656;48.870;12.562;2024-01-07T08:01:53;3.10;73.50
83828;DHT22;74656;48.870;12.562;2024-01-07T08:04:55;3.10;73.00
83828;DHT22;74656;48.870;12.562;2024-01-07T08:07:57;3.20;73.10
83828;DHT22;74656;48.870;12.562;2024-01-07T08:10:58;3.10;72.70
83828;DHT22;74656;48.870;12.562;2024-01-07T08:14:00;3.10;72.70
83828;DHT22;74656;48.870;12.562;2024-01-07T08:17:02;3.00;72.70
83828;DHT22;74656;48.870;12.562;2024-01-07T08:20:05;3.10;72.80
83828;DHT22;74656;48.870;12.562;2024-01-07T08:23:07;3.00;72.60
83828;DHT22;74656;48.870;12.562;2024-01-07T08:26:09;3.10;72.10
83828;DHT22;74656;48.870;12.562;2024-01-07T08:29:11;2.90;72.60
83828;DHT22;74656;48.870;12.562;2024-01-07T08:32:12;3.00;72.70
83828;DHT22;74656;48.870;12.562;2024-01-07T08:35:15;3.00;72.60
83828;DHT22;74656;48.870;12.562;2024-01-07T08:38:21;3.00;72.70
83828;DHT22;74656;48.870;12.562;2024-01-07T08:41:23;3.20;72.60
83828;DHT22;74656;48.870;12.562;2024-01-07T08:44:25;3.20;72.20
83828;DHT22;74656;48.870;12.562;2024-01-07T08:47:27;3.20;71.10
83828;DHT22;74656;48.870;12.562;2024-01-07T08:50:29;3.20;70.80
83828;DHT22;74656;48.870;12.562;2024-01-07T08:53:32;3.10;71.50
83828;DHT22;74656;48.870;12.562;2024-01-07T08:56:34;3.20;70.90
83828;DHT22;74656;48.870;12.562;2024-01-07T08:59:36;3.10;70.30
83828;DHT22;74656;48.870;12.562;2024-01-07T09:02:38;3.10;70.90
83828;DHT22;74656;48.870;12.562;2024-01-07T09:05:44;3.10;71.30
83828;DHT22;74656;48.870;12.562;2024-01-07T09:08:47;3.20;71.00
83828;DHT22;74656;48.870;12.562;2024-01-07T09:11:49;3.10;73.10
83828;DHT22;74656;48.870;12.562;2024-01-07T09:14:51;3.10;72.00
83828;DHT22;74656;48.870;12.562;2024-01-07T09:17:53;3.10;73.30
83828;DHT22;74656;48.870;12.562;2024-01-07T09:20:56;3.20;73.10
83828;DHT22;74656;48.870;12.562;2024-01-07T09:23:58;3.10;71.50
83828;DHT22;74656;48.870;12.562;2024-01-07T09:27:00;3.00;71.70
83828;DHT22;74656;48.870;12.562;2024-01-07T09:30:02;3.20;71.70
83828;DHT22;74656;48.870;12.562;2024-01-07T09:33:04;3.20;70.80
83828;DHT22;74656;48.870;12.562;2024-01-07T09:36:07;3.20;69.20
83828;DHT22;74656;48.870;12.562;2024-01-07T09:39:27;3.30;69.60
83828;DHT22;74656;48.870;12.562;2024-01-07T09:42:28;3.20;68.60
83828;DHT22;74656;48.870;12.562;2024-01-07T09:45:30;3.20;70.00
83828;DHT22;74656;48.870;12.562;2024-01-07T09:48:32;3.20;69.50
83828;DHT22;74656;48.870;12.562;2024-01-07T09:51:36;3.30;69.80
83828;DHT22;74656;48.870;12.562;2024-01-07T09:54:38;3.20;70.00
83828;DHT22;74656;48.870;12.562;2024-01-07T09:57:43;3.30;67.90
83828;DHT22;74656;48.870;12.562;2024-01-07T10:00:45;3.20;68.90
83828;DHT22;74656;48.870;12.562;2024-01-07T10:03:48;3.30;69.40
83828;DHT22;74656;48.870;12.562;2024-01-07T10:06:51;3.40;69.10
83828;DHT22;74656;48.870;12.562;2024-01-07T10:09:52;3.30;68.10
83828;DHT22;74656;48.870;12.562;2024-01-07T10:12:54;3.30;69.40
83828;DHT22;74656;48.870;12.562;2024-01-07T10:15:56;3.40;68.90
83828;DHT22;74656;48.870;12.562;2024-01-07T10:18:58;3.30;67.60
83828;DHT22;74656;48.870;12.562;2024-01-07T10:22:04;3.20;69.00
83828;DHT22;74656;48.870;12.562;2024-01-07T10:25:07;3.10;70.30
83828;DHT22;74656;48.870;12.562;2024-01-07T10:28:10;3.00;70.00
83828;DHT22;74656;48.870;12.562;2024-01-07T10:31:13;3.10;70.20
83828;DHT22;74656;48.870;12.562;2024-01-07T10:34:16;3.10;70.00
83828;DHT22;74656;48.870;12.562;2024-01-07T10:37:18;3.30;72.30
83828;DHT22;74656;48.870;12.562;2024-01-07T10:40:20;3.30;70.30
83828;DHT22;74656;48.870;12.562;2024-01-07T10:43:22;3.30;69.50
83828;DHT22;74656;48.870;12.562;2024-01-07T10:46:26;3.10;68.50
83828;DHT22;74656;48.870;12.562;2024-01-07T10:49:31;3.20;68.00
83828;DHT22;74656;48.870;12.562;2024-01-07T10:52:35;3.00;69.00
83828;DHT22;74656;48.870;12.562;2024-01-07T10:55:39;3.00;69.10
83828;DHT22;74656;48.870;12.562;2024-01-07T10:58:44;3.10;71.10
83828;DHT22;74656;48.870;12.562;2024-01-07T11:01:47;3.10;69.60
83828;DHT22;74656;48.870;12.562;2024-01-07T11:05:04;3.10;69.40
83828;DHT22;74656;48.870;12.562;2024-01-07T11:08:25;3.20;69.60
83828;DHT22;74656;48.870;12.562;2024-01-07T11:11:36;3.20;68.60
83828;DHT22;74656;48.870;12.562;2024-01-07T11:14:41;3.20;69.10
83828;DHT22;74656;48.870;12.562;2024-01-07T11:17:43;3.20;69.80
83828;DHT22;74656;48.870;12.562;2024-01-07T11:20:46;3.20;68.40
83828;DHT22;74656;48.870;12.562;2024-01-07T11:23:48;3.00;69.10
83828;DHT22;74656;48.870;12.562;2024-01-07T11:26:51;3.10;70.00
83828;DHT22;74656;48.870;12.562;2024-01-07T11:29:56;3.10;70.40
83828;DHT22;74656;48.870;12.562;2024-01-07T11:32:59;3.00;69.10
83828;DHT22;74656;48.870;12.562;2024-01-07T11:36:02;3.00;68.70
83828;DHT22;74656;48.870;12.562;2024-01-07T11:39:06;3.00;68.80
83828;DHT22;74656;48.870;12.562;2024-01-07T11:42:08;2.90;69.40
83828;DHT22;74656;48.870;12.562;2024-01-07T11:45:10;2.90;68.80
83828;DHT22;74656;48.870;12.562;2024-01-07T11:48:12;3.00;70.00
83828;DHT22;74656;48.870;12.562;2024-01-07T11:51:14;2.90;69.50
83828;DHT22;74656;48.870;12.562;2024-01-07T11:54:17;2.90;68.60
83828;DHT22;74656;48.870;12.562;2024-01-07T11:57:19;3.00;69.10
83828;DHT22;74656;48.870;12.562;2024-01-07T12:00:22;3.00;68.10
83828;DHT22;74656;48.870;12.562;2024-01-07T12:03:24;3.10;68.10
83828;DHT22;74656;48.870;12.562;2024-01-07T12:06:26;3.00;67.90
83828;DHT22;74656;48.870;12.562;2024-01-07T12:09:29;3.10;67.60
83828;DHT22;74656;48.870;12.562;2024-01-07T12:12:31;3.10;68.10
83828;DHT22;74656;48.870;12.562;2024-01-07T12:15:33;3.10;67.90
83828;DHT22;74656;48.870;12.562;2024-01-07T12:18:39;3.10;68.30
83828;DHT22;74656;48.870;12.562;2024-01-07T12:21:42;3.00;67.20
83828;DHT22;74656;48.870;12.562;2024-01-07T12:24:43;3.00;68.10
83828;DHT22;74656;48.870;12.562;2024-01-07T12:27:46;3.10;68.50
83828;DHT22;74656;48.870;12.562;2024-01-07T12:30:50;3.10;68.30
83828;DHT22;74656;48.870;12.562;2024-01-07T12:33:52;3.20;68.60
83828;DHT22;74656;48.870;12.562;2024-01-07T12:36:55;3.10;67.80
83828;DHT22;74656;48.870;12.562;2024-01-07T12:39:57;3.20;67.50
83828;DHT22;74656;48.870;12.562;2024-01-07T12:42:59;3.20;67.30
83828;DHT22;74656;48.870;12.562;2024-01-07T12:46:01;3.30;69.30
83828;DHT22;74656;48.870;12.562;2024-01-07T12:49:04;3.30;67.70
83828;DHT22;74656;48.870;12.562;2024-01-07T12:52:06;3.30;67.30
83828;DHT22;74656;48.870;12.562;2024-01-07T12:55:08;3.20;67.90
83828;DHT22;74656;48.870;12.562;2024-01-07T12:58:10;3.10;68.30
83828;DHT22;74656;48.870;12.562;2024-01-07T13:01:12;3.20;69.60
83828;DHT22;74656;48.870;12.562;2024-01-07T13:04:14;3.10;69.10
83828;DHT22;74656;48.870;12.562;2024-01-07T13:07:17;3.10;68.00
83828;DHT22;74656;48.870;12.562;2024-01-07T13:10:19;3.10;68.00
83828;DHT22;74656;48.870;12.562;2024-01-07T13:13:20;3.00;68.90
83828;DHT22;74656;48.870;12.562;2024-01-07T13:16:23;3.10;68.90
83828;DHT22;74656;48.870;12.562;2024-01-07T13:19:25;3.00;68.80
83828;DHT22;74656;48.870;12.562;2024-01-07T13:22:28;2.90;69.10
83828;DHT22;74656;48.870;12.562;2024-01-07T13:25:30;2.80;69.10
83828;DHT22;74656;48.870;12.562;2024-01-07T13:28:32;3.00;68.50
83828;DHT22;74656;48.870;12.562;2024-01-07T13:31:35;2.80;69.60
83828;DHT22;74656;48.870;12.562;2024-01-07T13:34:37;2.90;69.30
83828;DHT22;74656;48.870;12.562;2024-01-07T13:37:40;2.80;70.00
83828;DHT22;74656;48.870;12.562;2024-01-07T13:40:42;2.70;68.90
83828;DHT22;74656;48.870;12.562;2024-01-07T13:43:44;2.70;71.10
83828;DHT22;74656;48.870;12.562;2024-01-07T13:46:46;2.60;70.40
83828;DHT22;74656;48.870;12.562;2024-01-07T13:49:49;2.60;70.60
83828;DHT22;74656;48.870;12.562;2024-01-07T13:52:51;2.50;71.80
83828;DHT22;74656;48.870;12.562;2024-01-07T13:55:53;2.50;71.90
83828;DHT22;74656;48.870;12.562;2024-01-07T13:58:54;2.50;71.70
83828;DHT22;74656;48.870;12.562;2024-01-07T14:01:56;2.40;71.10
83828;DHT22;74656;48.870;12.562;2024-01-07T14:04:59;2.30;71.30
83828;DHT22;74656;48.870;12.562;2024-01-07T14:08:01;2.40;72.00
83828;DHT22;74656;48.870;12.562;2024-01-07T14:11:03;2.40;72.00
83828;DHT22;74656;48.870;12.562;2024-01-07T14:14:05;2.40;72.10
83828;DHT22;74656;48.870;12.562;2024-01-07T14:17:07;2.40;70.40
83828;DHT22;74656;48.870;12.562;2024-01-07T14:20:09;2.40;70.60
83828;DHT22;74656;48.870;12.562;2024-01-07T14:23:12;2.20;71.40
83828;DHT22;74656;48.870;12.562;2024-01-07T14:26:13;2.30;72.10
83828;DHT22;74656;48.870;12.562;2024-01-07T14:29:15;2.20;72.70
83828;DHT22;74656;48.870;12.562;2024-01-07T14:32:19;2.20;72.40
83828;DHT22;74656;48.870;12.562;2024-01-07T14:35:20;2.00;72.70
83828;DHT22;74656;48.870;12.562;2024-01-07T14:38:23;2.10;73.30
83828;DHT22;74656;48.870;12.562;2024-01-07T14:41:24;2.10;72.50
83828;DHT22;74656;48.870;12.562;2024-01-07T14:44:27;2.00;71.90
83828;DHT22;74656;48.870;12.562;2024-01-07T14:47:45;2.00;71.20
83828;DHT22;74656;48.870;12.562;2024-01-07T14:50:47;1.90;71.10
83828;DHT22;74656;48.870;12.562;2024-01-07T14:53:50;1.90;69.90
83828;DHT22;74656;48.870;12.562;2024-01-07T14:56:51;1.90;68.60
83828;DHT22;74656;48.870;12.562;2024-01-07T14:59:53;1.80;68.30
83828;DHT22;74656;48.870;12.562;2024-01-07T15:02:55;1.80;68.10
83828;DHT22;74656;48.870;12.562;2024-01-07T15:05:57;1.90;67.70
83828;DHT22;74656;48.870;12.562;2024-01-07T15:08:59;1.90;67.10
83828;DHT22;74656;48.870;12.562;2024-01-07T15:12:03;1.90;67.00
83828;DHT22;74656;48.870;12.562;2024-01-07T15:15:06;1.80;66.90
83828;DHT22;74656;48.870;12.562;2024-01-07T15:18:08;1.80;67.40
83828;DHT22;74656;48.870;12.562;2024-01-07T15:21:10;1.80;67.50
83828;DHT22;74656;48.870;12.562;2024-01-07T15:24:12;1.70;68.20
83828;DHT22;74656;48.870;12.562;2024-01-07T15:27:14;1.60;68.00
83828;DHT22;74656;48.870;12.562;2024-01-07T15:30:17;1.70;68.20
83828;DHT22;74656;48.870;12.562;2024-01-07T15:33:19;1.70;68.00
83828;DHT22;74656;48.870;12.562;2024-01-07T15:36:22;1.80;67.50
83828;DHT22;74656;48.870;12.562;2024-01-07T15:39:24;1.50;67.60
83828;DHT22;74656;48.870;12.562;2024-01-07T15:42:25;1.50;68.10
83828;DHT22;74656;48.870;12.562;2024-01-07T15:45:28;1.40;68.90
83828;DHT22;74656;48.870;12.562;2024-01-07T15:48:30;1.50;68.30
83828;DHT22;74656;48.870;12.562;2024-01-07T15:51:31;1.30;68.10
83828;DHT22;74656;48.870;12.562;2024-01-07T15:54:34;1.20;68.80
83828;DHT22;74656;48.870;12.562;2024-01-07T15:57:36;1.10;68.70
83828;DHT22;74656;48.870;12.562;2024-01-07T16:00:38;1.00;68.80
83828;DHT22;74656;48.870;12.562;2024-01-07T16:03:40;1.00;68.60
83828;DHT22;74656;48.870;12.562;2024-01-07T16:06:42;1.10;68.80
83828;DHT22;74656;48.870;12.562;2024-01-07T16:09:44;1.00;68.60
83828;DHT22;74656;48.870;12.562;2024-01-07T16:12:46;1.00;68.20
83828;DHT22;74656;48.870;12.562;2024-01-07T16:15:48;1.00;68.40
83828;DHT22;74656;48.870;12.562;2024-01-07T16:18:50;1.20;67.90
83828;DHT22;74656;48.870;12.562;2024-01-07T16:21:51;1.30;67.80
83828;DHT22;74656;48.870;12.562;2024-01-07T16:24:54;1.20;67.20
83828;DHT22;74656;48.870;12.562;2024-01-07T16:27:55;1.10;66.80
83828;DHT22;74656;48.870;12.562;2024-01-07T16:30:57;1.20;66.10
83828;DHT22;74656;48.870;12.562;2024-01-07T16:34:00;1.00;66.00
83828;DHT22;74656;48.870;12.562;2024-01-07T16:37:02;1.00;66.10
83828;DHT22;74656;48.870;12.562;2024-01-07T16:40:04;1.10;64.40
83828;DHT22;74656;48.870;12.562;2024-01-07T16:43:06;1.10;64.20
83828;DHT22;74656;48.870;12.562;2024-01-07T16:46:08;1.10;63.90
83828;DHT22;74656;48.870;12.562;2024-01-07T16:49:10;1.00;63.80
83828;DHT22;74656;48.870;12.562;2024-01-07T16:52:32;1.10;62.90
83828;DHT22;74656;48.870;12.562;2024-01-07T16:55:34;1.00;62.80
83828;DHT22;74656;48.870;12.562;2024-01-07T16:58:36;0.90;62.60
83828;DHT22;74656;48.870;12.562;2024-01-07T17:01:38;0.80;62.10
83828;DHT22;74656;48.870;12.562;2024-01-07T17:04:40;0.70;61.50
83828;DHT22;74656;48.870;12.562;2024-01-07T17:07:42;0.80;62.60
83828;DHT22;74656;48.870;12.562;2024-01-07T17:10:45;0.90;61.90
83828;DHT22;74656;48.870;12.562;2024-01-07T17:13:48;0.80;62.40
83828;DHT22;74656;48.870;12.562;2024-01-07T17:16:50;0.90;65.00
83828;DHT22;74656;48.870;12.562;2024-01-07T17:19:52;0.90;65.10
83828;DHT22;74656;48.870;12.562;2024-01-07T17:22:54;1.00;62.10
83828;DHT22;74656;48.870;12.562;2024-01-07T17:25:57;0.90;60.80
83828;DHT22;74656;48.870;12.562;2024-01-07T17:28:58;0.90;60.90
83828;DHT22;74656;48.870;12.562;2024-01-07T17:32:01;0.80;60.90
83828;DHT22;74656;48.870;12.562;2024-01-07T17:35:03;0.90;61.00
83828;DHT22;74656;48.870;12.562;2024-01-07T17:38:05;0.80;60.70
83828;DHT22;74656;48.870;12.562;2024-01-07T17:41:08;0.70;61.00
83828;DHT22;74656;48.870;12.562;2024-01-07T17:44:10;0.60;60.80
83828;DHT22;74656;48.870;12.562;2024-01-07T17:47:12;0.60;61.10
83828;DHT22;74656;48.870;12.562;2024-01-07T17:50:15;0.50;61.10
83828;DHT22;74656;48.870;12.562;2024-01-07T17:53:16;0.50;61.10
83828;DHT22;74656;48.870;12.562;2024-01-07T17:56:21;0.50;61.30
83828;DHT22;74656;48.870;12.562;2024-01-07T17:59:24;0.30;61.40
83828;DHT22;74656;48.870;12.562;2024-01-07T18:02:26;0.30;62.40
83828;DHT22;74656;48.870;12.562;2024-01-07T18:05:28;0.30;62.20
83828;DHT22;74656;48.870;12.562;2024-01-07T18:08:30;0.30;61.90
83828;DHT22;74656;48.870;12.562;2024-01-07T18:11:43;0.30;61.90
83828;DHT22;74656;48.870;12.562;2024-01-07T18:14:44;0.30;62.30
83828;DHT22;74656;48.870;12.562;2024-01-07T18:17:46;0.20;62.70
83828;DHT22;74656;48.870;12.562;2024-01-07T18:20:48;0.20;62.90
83828;DHT22;74656;48.870;12.562;2024-01-07T18:23:50;0.30;62.70
83828;DHT22;74656;48.870;12.562;2024-01-07T18:26:52;0.20;62.20
83828;DHT22;74656;48.870;12.562;2024-01-07T18:29:55;0.10;62.50
83828;DHT22;74656;48.870;12.562;2024-01-07T18:32:57;0.10;63.90
83828;DHT22;74656;48.870;12.562;2024-01-07T18:35:59;0.20;63.30
83828;DHT22;74656;48.870;12.562;2024-01-07T18:39:00;0.30;62.50
83828;DHT22;74656;48.870;12.562;2024-01-07T18:42:03;0.20;62.70
83828;DHT22;74656;48.870;12.562;2024-01-07T18:45:05;0.10;62.20
83828;DHT22;74656;48.870;12.562;2024-01-07T18:48:08;0.10;61.80
83828;DHT22;74656;48.870;12.562;2024-01-07T18:51:10;0.10;62.40
83828;DHT22;74656;48.870;12.562;2024-01-07T18:54:12;-0.10;62.60
83828;DHT22;74656;48.870;12.562;2024-01-07T18:57:14;-0.10;63.70
83828;DHT22;74656;48.870;12.562;2024-01-07T19:00:16;0.00;65.50
83828;DHT22;74656;48.870;12.562;2024-01-07T19:03:19;0.00;63.70
83828;DHT22;74656;48.870;12.562;2024-01-07T19:06:21;0.10;63.30
83828;DHT22;74656;48.870;12.562;2024-01-07T19:09:24;0.00;63.00
83828;DHT22;74656;48.870;12.562;2024-01-07T19:12:26;0.00;62.20